sensor_id;sensor_type;location;lat;lon;timestamp;P1;durP1;ratioP1;P2;durP2;ratioP2
38787;SDS011;24536;45.488;12.238;2024-03-22T00:01:52;60.60;;;51.10;;
38787;SDS011;24536;45.488;12.238;2024-03-22T00:04:18;63.47;;;51.05;;
38787;SDS011;24536;45.488;12.238;2024-03-22T00:06:45;63.20;;;51.03;;
38787;SDS011;24536;45.488;12.238;2024-03-22T00:09:12;58.45;;;48.28;;
38787;SDS011;24536;45.488;12.238;2024-03-22T00:11:41;58.15;;;47.97;;
38787;SDS011;24536;45.488;12.238;2024-03-22T00:14:08;58.40;;;47.42;;
38787;SDS011;24536;45.488;12.238;2024-03-22T00:16:34;58.45;;;48.40;;
38787;SDS011;24536;45.488;12.238;2024-03-22T00:19:00;56.60;;;47.30;;
38787;SDS011;24536;45.488;12.238;2024-03-22T00:21:27;58.38;;;48.47;;
38787;SDS011;24536;45.488;12.238;2024-03-22T00:23:53;58.45;;;47.60;;
38787;SDS011;24536;45.488;12.238;2024-03-22T00:26:19;57.20;;;48.47;;
38787;SDS011;24536;45.488;12.238;2024-03-22T00:28:44;54.10;;;45.78;;
38787;SDS011;24536;45.488;12.238;2024-03-22T00:33:44;60.13;;;48.10;;
38787;SDS011;24536;45.488;12.238;2024-03-22T00:36:09;56.10;;;46.90;;
38787;SDS011;24536;45.488;12.238;2024-03-22T00:38:36;56.08;;;46.42;;
38787;SDS011;24536;45.488;12.238;2024-03-22T00:41:02;53.88;;;46.67;;
38787;SDS011;24536;45.488;12.238;2024-03-22T00:43:28;53.00;;;43.95;;
38787;SDS011;24536;45.488;12.238;2024-03-22T00:45:53;53.33;;;44.10;;
38787;SDS011;24536;45.488;12.238;2024-03-22T00:48:19;50.97;;;43.95;;
38787;SDS011;24536;45.488;12.238;2024-03-22T00:50:45;50.45;;;43.25;;
38787;SDS011;24536;45.488;12.238;2024-03-22T00:53:10;54.30;;;46.17;;
38787;SDS011;24536;45.488;12.238;2024-03-22T00:55:36;53.75;;;45.63;;
38787;SDS011;24536;45.488;12.238;2024-03-22T00:58:02;53.38;;;45.80;;
38787;SDS011;24536;45.488;12.238;2024-03-22T01:00:28;52.92;;;45.97;;
38787;SDS011;24536;45.488;12.238;2024-03-22T01:02:53;58.67;;;46.53;;
38787;SDS011;24536;45.488;12.238;2024-03-22T01:05:19;53.95;;;44.65;;
38787;SDS011;24536;45.488;12.238;2024-03-22T01:07:45;54.35;;;45.63;;
38787;SDS011;24536;45.488;12.238;2024-03-22T01:10:11;54.42;;;45.42;;
38787;SDS011;24536;45.488;12.238;2024-03-22T01:12:37;52.25;;;43.22;;
38787;SDS011;24536;45.488;12.238;2024-03-22T01:15:04;50.83;;;44.78;;
38787;SDS011;24536;45.488;12.238;2024-03-22T01:17:30;55.90;;;46.60;;
38787;SDS011;24536;45.488;12.238;2024-03-22T01:19:56;57.63;;;48.15;;
38787;SDS011;24536;45.488;12.238;2024-03-22T01:22:22;54.22;;;45.83;;
38787;SDS011;24536;45.488;12.238;2024-03-22T01:24:48;53.53;;;46.55;;
38787;SDS011;24536;45.488;12.238;2024-03-22T01:27:14;55.30;;;46.05;;
38787;SDS011;24536;45.488;12.238;2024-03-22T01:29:39;53.92;;;46.40;;
38787;SDS011;24536;45.488;12.238;2024-03-22T01:32:05;56.20;;;43.90;;
38787;SDS011;24536;45.488;12.238;2024-03-22T01:34:31;58.40;;;48.05;;
38787;SDS011;24536;45.488;12.238;2024-03-22T01:36:57;53.72;;;46.45;;
38787;SDS011;24536;45.488;12.238;2024-03-22T01:39:23;55.13;;;47.30;;
38787;SDS011;24536;45.488;12.238;2024-03-22T01:41:49;55.55;;;47.40;;
38787;SDS011;24536;45.488;12.238;2024-03-22T01:44:16;57.83;;;48.58;;
38787;SDS011;24536;45.488;12.238;2024-03-22T01:46:42;55.65;;;45.28;;
38787;SDS011;24536;45.488;12.238;2024-03-22T01:49:09;52.53;;;45.17;;
38787;SDS011;24536;45.488;12.238;2024-03-22T01:51:38;54.42;;;46.03;;
38787;SDS011;24536;45.488;12.238;2024-03-22T01:54:05;52.88;;;46.03;;
38787;SDS011;24536;45.488;12.238;2024-03-22T01:56:38;46.97;;;39.40;;
38787;SDS011;24536;45.488;12.238;2024-03-22T01:59:04;51.83;;;43.95;;
38787;SDS011;24536;45.488;12.238;2024-03-22T02:01:31;50.60;;;41.58;;
38787;SDS011;24536;45.488;12.238;2024-03-22T02:03:57;49.83;;;41.97;;
38787;SDS011;24536;45.488;12.238;2024-03-22T02:06:22;49.58;;;41.30;;
38787;SDS011;24536;45.488;12.238;2024-03-22T02:08:48;50.72;;;45.05;;
38787;SDS011;24536;45.488;12.238;2024-03-22T02:11:14;47.72;;;40.85;;
38787;SDS011;24536;45.488;12.238;2024-03-22T02:13:39;49.58;;;43.00;;
38787;SDS011;24536;45.488;12.238;2024-03-22T02:16:05;48.92;;;41.25;;
38787;SDS011;24536;45.488;12.238;2024-03-22T02:18:31;49.97;;;43.63;;
38787;SDS011;24536;45.488;12.238;2024-03-22T02:20:57;49.50;;;43.83;;
38787;SDS011;24536;45.488;12.238;2024-03-22T02:23:56;48.22;;;41.65;;
38787;SDS011;24536;45.488;12.238;2024-03-22T02:26:14;48.20;;;42.25;;
38787;SDS011;24536;45.488;12.238;2024-03-22T02:28:40;42.22;;;36.60;;
38787;SDS011;24536;45.488;12.238;2024-03-22T02:31:05;48.38;;;39.83;;
38787;SDS011;24536;45.488;12.238;2024-03-22T02:33:31;44.83;;;37.50;;
38787;SDS011;24536;45.488;12.238;2024-03-22T02:35:57;41.72;;;37.08;;
38787;SDS011;24536;45.488;12.238;2024-03-22T02:38:22;40.60;;;34.55;;
38787;SDS011;24536;45.488;12.238;2024-03-22T02:40:48;41.10;;;34.78;;
38787;SDS011;24536;45.488;12.238;2024-03-22T02:43:15;43.85;;;36.55;;
38787;SDS011;24536;45.488;12.238;2024-03-22T02:45:43;51.88;;;45.33;;
38787;SDS011;24536;45.488;12.238;2024-03-22T02:48:09;48.17;;;39.55;;
38787;SDS011;24536;45.488;12.238;2024-03-22T02:50:35;44.33;;;38.85;;
38787;SDS011;24536;45.488;12.238;2024-03-22T02:53:02;45.67;;;39.20;;
38787;SDS011;24536;45.488;12.238;2024-03-22T02:55:28;46.03;;;38.58;;
38787;SDS011;24536;45.488;12.238;2024-03-22T02:57:53;58.30;;;49.25;;
38787;SDS011;24536;45.488;12.238;2024-03-22T03:00:20;37.30;;;32.58;;
38787;SDS011;24536;45.488;12.238;2024-03-22T03:02:46;47.08;;;39.17;;
38787;SDS011;24536;45.488;12.238;2024-03-22T03:05:12;43.33;;;38.42;;
38787;SDS011;24536;45.488;12.238;2024-03-22T03:07:37;44.60;;;39.67;;
38787;SDS011;24536;45.488;12.238;2024-03-22T03:10:03;44.60;;;39.78;;
38787;SDS011;24536;45.488;12.238;2024-03-22T03:12:29;46.28;;;40.08;;
38787;SDS011;24536;45.488;12.238;2024-03-22T03:14:55;47.60;;;40.50;;
38787;SDS011;24536;45.488;12.238;2024-03-22T03:17:20;48.15;;;40.15;;
38787;SDS011;24536;45.488;12.238;2024-03-22T03:19:46;50.42;;;42.17;;
38787;SDS011;24536;45.488;12.238;2024-03-22T03:22:13;44.33;;;38.30;;
38787;SDS011;24536;45.488;12.238;2024-03-22T03:24:38;46.90;;;40.08;;
38787;SDS011;24536;45.488;12.238;2024-03-22T03:27:04;44.88;;;39.92;;
38787;SDS011;24536;45.488;12.238;2024-03-22T03:29:30;45.38;;;39.13;;
38787;SDS011;24536;45.488;12.238;2024-03-22T03:31:55;45.10;;;38.88;;
38787;SDS011;24536;45.488;12.238;2024-03-22T03:34:21;48.38;;;40.55;;
38787;SDS011;24536;45.488;12.238;2024-03-22T03:36:47;45.47;;;39.67;;
38787;SDS011;24536;45.488;12.238;2024-03-22T03:39:12;46.50;;;37.90;;
38787;SDS011;24536;45.488;12.238;2024-03-22T03:41:38;44.00;;;36.75;;
38787;SDS011;24536;45.488;12.238;2024-03-22T03:44:04;44.00;;;37.65;;
38787;SDS011;24536;45.488;12.238;2024-03-22T03:46:29;44.75;;;37.10;;
38787;SDS011;24536;45.488;12.238;2024-03-22T03:48:55;43.92;;;38.70;;
38787;SDS011;24536;45.488;12.238;2024-03-22T03:51:21;45.38;;;38.58;;
38787;SDS011;24536;45.488;12.238;2024-03-22T03:53:46;46.17;;;39.67;;
38787;SDS011;24536;45.488;12.238;2024-03-22T03:56:12;45.78;;;39.65;;
38787;SDS011;24536;45.488;12.238;2024-03-22T03:58:37;42.83;;;37.63;;
38787;SDS011;24536;45.488;12.238;2024-03-22T04:01:06;47.03;;;38.90;;
38787;SDS011;24536;45.488;12.238;2024-03-22T04:03:32;44.80;;;34.75;;
38787;SDS011;24536;45.488;12.238;2024-03-22T04:05:58;38.92;;;34.72;;
38787;SDS011;24536;45.488;12.238;2024-03-22T04:08:25;44.25;;;36.47;;
38787;SDS011;24536;45.488;12.238;2024-03-22T04:10:54;42.78;;;37.05;;
38787;SDS011;24536;45.488;12.238;2024-03-22T04:13:23;42.60;;;35.47;;
38787;SDS011;24536;45.488;12.238;2024-03-22T04:15:50;35.40;;;30.15;;
38787;SDS011;24536;45.488;12.238;2024-03-22T04:18:16;41.40;;;36.70;;
38787;SDS011;24536;45.488;12.238;2024-03-22T04:20:41;39.47;;;35.28;;
38787;SDS011;24536;45.488;12.238;2024-03-22T04:23:08;42.65;;;36.22;;
38787;SDS011;24536;45.488;12.238;2024-03-22T04:25:34;41.08;;;36.58;;
38787;SDS011;24536;45.488;12.238;2024-03-22T04:28:00;41.80;;;35.88;;
38787;SDS011;24536;45.488;12.238;2024-03-22T04:30:25;40.70;;;35.15;;
38787;SDS011;24536;45.488;12.238;2024-03-22T04:32:51;40.78;;;34.70;;
38787;SDS011;24536;45.488;12.238;2024-03-22T04:35:17;40.42;;;32.78;;
38787;SDS011;24536;45.488;12.238;2024-03-22T04:37:42;39.65;;;34.33;;
38787;SDS011;24536;45.488;12.238;2024-03-22T04:40:08;39.20;;;34.95;;
38787;SDS011;24536;45.488;12.238;2024-03-22T04:42:37;43.35;;;35.78;;
38787;SDS011;24536;45.488;12.238;2024-03-22T04:45:02;38.92;;;33.75;;
38787;SDS011;24536;45.488;12.238;2024-03-22T04:47:28;38.78;;;33.40;;
38787;SDS011;24536;45.488;12.238;2024-03-22T04:49:54;40.90;;;35.10;;
38787;SDS011;24536;45.488;12.238;2024-03-22T04:52:20;41.38;;;35.90;;
38787;SDS011;24536;45.488;12.238;2024-03-22T04:54:45;36.92;;;32.85;;
38787;SDS011;24536;45.488;12.238;2024-03-22T04:57:12;35.97;;;30.80;;
38787;SDS011;24536;45.488;12.238;2024-03-22T04:59:38;38.95;;;34.17;;
38787;SDS011;24536;45.488;12.238;2024-03-22T05:02:03;40.20;;;34.05;;
38787;SDS011;24536;45.488;12.238;2024-03-22T05:04:29;37.95;;;33.30;;
38787;SDS011;24536;45.488;12.238;2024-03-22T05:06:55;39.88;;;35.35;;
38787;SDS011;24536;45.488;12.238;2024-03-22T05:09:20;40.42;;;34.42;;
38787;SDS011;24536;45.488;12.238;2024-03-22T05:11:46;39.25;;;33.60;;
38787;SDS011;24536;45.488;12.238;2024-03-22T05:14:15;38.85;;;32.70;;
38787;SDS011;24536;45.488;12.238;2024-03-22T05:16:40;37.97;;;33.47;;
38787;SDS011;24536;45.488;12.238;2024-03-22T05:19:06;37.78;;;32.97;;
38787;SDS011;24536;45.488;12.238;2024-03-22T05:21:32;39.08;;;33.42;;
38787;SDS011;24536;45.488;12.238;2024-03-22T05:23:57;37.85;;;33.38;;
38787;SDS011;24536;45.488;12.238;2024-03-22T05:26:23;34.22;;;29.83;;
38787;SDS011;24536;45.488;12.238;2024-03-22T05:28:49;38.63;;;32.38;;
38787;SDS011;24536;45.488;12.238;2024-03-22T05:31:14;37.20;;;32.40;;
38787;SDS011;24536;45.488;12.238;2024-03-22T05:33:40;35.40;;;30.70;;
38787;SDS011;24536;45.488;12.238;2024-03-22T05:36:06;37.15;;;32.47;;
38787;SDS011;24536;45.488;12.238;2024-03-22T05:38:32;36.78;;;32.08;;
38787;SDS011;24536;45.488;12.238;2024-03-22T05:40:57;37.35;;;31.85;;
38787;SDS011;24536;45.488;12.238;2024-03-22T05:43:23;38.20;;;31.15;;
38787;SDS011;24536;45.488;12.238;2024-03-22T05:45:49;35.35;;;31.00;;
38787;SDS011;24536;45.488;12.238;2024-03-22T05:48:14;35.22;;;30.40;;
38787;SDS011;24536;45.488;12.238;2024-03-22T05:50:40;38.13;;;31.55;;
38787;SDS011;24536;45.488;12.238;2024-03-22T05:53:06;33.55;;;29.67;;
38787;SDS011;24536;45.488;12.238;2024-03-22T05:55:31;34.88;;;30.77;;
38787;SDS011;24536;45.488;12.238;2024-03-22T05:57:57;35.25;;;31.23;;
38787;SDS011;24536;45.488;12.238;2024-03-22T06:00:23;30.75;;;27.45;;
38787;SDS011;24536;45.488;12.238;2024-03-22T06:02:48;34.10;;;28.02;;
38787;SDS011;24536;45.488;12.238;2024-03-22T06:05:14;34.22;;;29.48;;
38787;SDS011;24536;45.488;12.238;2024-03-22T06:07:40;35.00;;;29.65;;
38787;SDS011;24536;45.488;12.238;2024-03-22T06:10:07;34.17;;;29.92;;
38787;SDS011;24536;45.488;12.238;2024-03-22T06:12:35;31.13;;;27.83;;
38787;SDS011;24536;45.488;12.238;2024-03-22T06:15:01;32.13;;;28.65;;
38787;SDS011;24536;45.488;12.238;2024-03-22T06:17:27;32.50;;;28.75;;
38787;SDS011;24536;45.488;12.238;2024-03-22T06:19:52;34.17;;;28.67;;
38787;SDS011;24536;45.488;12.238;2024-03-22T06:22:18;33.65;;;28.63;;
38787;SDS011;24536;45.488;12.238;2024-03-22T06:24:44;32.13;;;26.92;;
38787;SDS011;24536;45.488;12.238;2024-03-22T06:27:10;30.15;;;26.52;;
38787;SDS011;24536;45.488;12.238;2024-03-22T06:29:35;30.05;;;26.73;;
38787;SDS011;24536;45.488;12.238;2024-03-22T06:32:01;30.88;;;26.60;;
38787;SDS011;24536;45.488;12.238;2024-03-22T06:34:27;31.15;;;26.45;;
38787;SDS011;24536;45.488;12.238;2024-03-22T06:36:52;32.17;;;27.60;;
38787;SDS011;24536;45.488;12.238;2024-03-22T06:39:18;32.67;;;26.63;;
38787;SDS011;24536;45.488;12.238;2024-03-22T06:41:44;29.00;;;25.40;;
38787;SDS011;24536;45.488;12.238;2024-03-22T06:44:11;26.88;;;23.98;;
38787;SDS011;24536;45.488;12.238;2024-03-22T06:46:41;25.60;;;22.20;;
38787;SDS011;24536;45.488;12.238;2024-03-22T06:49:07;27.08;;;23.45;;
38787;SDS011;24536;45.488;12.238;2024-03-22T06:51:33;23.88;;;20.95;;
38787;SDS011;24536;45.488;12.238;2024-03-22T06:53:58;27.63;;;23.02;;
38787;SDS011;24536;45.488;12.238;2024-03-22T06:56:24;27.15;;;23.73;;
38787;SDS011;24536;45.488;12.238;2024-03-22T06:58:49;25.70;;;21.77;;
38787;SDS011;24536;45.488;12.238;2024-03-22T07:01:15;20.77;;;18.35;;
38787;SDS011;24536;45.488;12.238;2024-03-22T07:03:41;25.30;;;20.50;;
38787;SDS011;24536;45.488;12.238;2024-03-22T07:06:10;24.70;;;22.00;;
38787;SDS011;24536;45.488;12.238;2024-03-22T07:08:36;29.25;;;23.15;;
38787;SDS011;24536;45.488;12.238;2024-03-22T07:11:04;27.15;;;22.83;;
38787;SDS011;24536;45.488;12.238;2024-03-22T07:13:31;26.20;;;23.40;;
38787;SDS011;24536;45.488;12.238;2024-03-22T07:15:57;29.55;;;24.65;;
38787;SDS011;24536;45.488;12.238;2024-03-22T07:18:22;24.95;;;21.80;;
38787;SDS011;24536;45.488;12.238;2024-03-22T07:20:48;23.48;;;20.63;;
38787;SDS011;24536;45.488;12.238;2024-03-22T07:23:14;24.58;;;21.83;;
38787;SDS011;24536;45.488;12.238;2024-03-22T07:25:39;27.17;;;23.15;;
38787;SDS011;24536;45.488;12.238;2024-03-22T07:28:07;23.20;;;20.52;;
38787;SDS011;24536;45.488;12.238;2024-03-22T07:30:33;25.95;;;21.38;;
38787;SDS011;24536;45.488;12.238;2024-03-22T07:33:00;24.23;;;21.60;;
38787;SDS011;24536;45.488;12.238;2024-03-22T07:35:26;23.05;;;20.58;;
38787;SDS011;24536;45.488;12.238;2024-03-22T07:37:51;23.98;;;20.77;;
38787;SDS011;24536;45.488;12.238;2024-03-22T07:40:17;22.88;;;19.65;;
38787;SDS011;24536;45.488;12.238;2024-03-22T07:42:43;22.08;;;19.70;;
38787;SDS011;24536;45.488;12.238;2024-03-22T07:45:08;22.90;;;19.17;;
38787;SDS011;24536;45.488;12.238;2024-03-22T07:47:35;23.63;;;20.00;;
38787;SDS011;24536;45.488;12.238;2024-03-22T07:50:01;22.92;;;19.35;;
38787;SDS011;24536;45.488;12.238;2024-03-22T07:52:26;21.52;;;19.23;;
38787;SDS011;24536;45.488;12.238;2024-03-22T07:54:52;19.35;;;17.25;;
38787;SDS011;24536;45.488;12.238;2024-03-22T07:57:18;23.55;;;20.13;;
38787;SDS011;24536;45.488;12.238;2024-03-22T07:59:43;21.52;;;18.52;;
38787;SDS011;24536;45.488;12.238;2024-03-22T08:02:10;24.05;;;20.23;;
38787;SDS011;24536;45.488;12.238;2024-03-22T08:04:35;20.73;;;17.92;;
38787;SDS011;24536;45.488;12.238;2024-03-22T08:07:01;20.00;;;17.50;;
38787;SDS011;24536;45.488;12.238;2024-03-22T08:09:27;20.20;;;18.10;;
38787;SDS011;24536;45.488;12.238;2024-03-22T08:11:52;20.05;;;16.35;;
38787;SDS011;24536;45.488;12.238;2024-03-22T08:14:18;20.15;;;16.40;;
38787;SDS011;24536;45.488;12.238;2024-03-22T08:16:43;20.30;;;18.13;;
38787;SDS011;24536;45.488;12.238;2024-03-22T08:19:09;17.00;;;15.30;;
38787;SDS011;24536;45.488;12.238;2024-03-22T08:21:34;16.35;;;14.65;;
38787;SDS011;24536;45.488;12.238;2024-03-22T08:24:01;15.70;;;13.43;;
38787;SDS011;24536;45.488;12.238;2024-03-22T08:26:27;15.18;;;13.60;;
38787;SDS011;24536;45.488;12.238;2024-03-22T08:28:53;16.88;;;14.50;;
38787;SDS011;24536;45.488;12.238;2024-03-22T08:31:18;14.52;;;13.07;;
38787;SDS011;24536;45.488;12.238;2024-03-22T08:33:50;15.65;;;13.93;;
38787;SDS011;24536;45.488;12.238;2024-03-22T08:36:16;14.52;;;12.98;;
38787;SDS011;24536;45.488;12.238;2024-03-22T08:38:42;13.50;;;12.05;;
38787;SDS011;24536;45.488;12.238;2024-03-22T08:41:07;13.75;;;12.32;;
38787;SDS011;24536;45.488;12.238;2024-03-22T08:43:33;14.77;;;12.07;;
38787;SDS011;24536;45.488;12.238;2024-03-22T08:45:58;11.80;;;10.32;;
38787;SDS011;24536;45.488;12.238;2024-03-22T08:48:24;12.85;;;11.23;;
38787;SDS011;24536;45.488;12.238;2024-03-22T08:50:49;12.52;;;11.20;;
38787;SDS011;24536;45.488;12.238;2024-03-22T08:53:15;10.73;;;9.13;;
38787;SDS011;24536;45.488;12.238;2024-03-22T08:55:45;10.63;;;9.23;;
38787;SDS011;24536;45.488;12.238;2024-03-22T09:00:38;10.70;;;9.40;;
38787;SDS011;24536;45.488;12.238;2024-03-22T09:03:03;9.20;;;8.13;;
38787;SDS011;24536;45.488;12.238;2024-03-22T09:05:29;8.80;;;7.85;;
38787;SDS011;24536;45.488;12.238;2024-03-22T09:07:54;7.45;;;6.75;;
38787;SDS011;24536;45.488;12.238;2024-03-22T09:10:22;9.30;;;6.25;;
38787;SDS011;24536;45.488;12.238;2024-03-22T09:12:47;6.70;;;5.93;;
38787;SDS011;24536;45.488;12.238;2024-03-22T09:15:13;5.57;;;4.90;;
38787;SDS011;24536;45.488;12.238;2024-03-22T09:17:39;5.40;;;4.30;;
38787;SDS011;24536;45.488;12.238;2024-03-22T09:20:13;5.03;;;3.45;;
38787;SDS011;24536;45.488;12.238;2024-03-22T09:22:39;3.80;;;3.40;;
38787;SDS011;24536;45.488;12.238;2024-03-22T09:25:05;4.75;;;4.20;;
38787;SDS011;24536;45.488;12.238;2024-03-22T09:27:31;7.03;;;4.90;;
38787;SDS011;24536;45.488;12.238;2024-03-22T09:29:58;5.97;;;5.05;;
38787;SDS011;24536;45.488;12.238;2024-03-22T09:32:23;5.68;;;4.10;;
38787;SDS011;24536;45.488;12.238;2024-03-22T09:34:51;4.43;;;3.85;;
38787;SDS011;24536;45.488;12.238;2024-03-22T09:37:17;5.53;;;4.10;;
38787;SDS011;24536;45.488;12.238;2024-03-22T09:39:43;5.15;;;4.10;;
38787;SDS011;24536;45.488;12.238;2024-03-22T09:42:09;4.05;;;3.65;;
38787;SDS011;24536;45.488;12.238;2024-03-22T09:44:46;4.97;;;3.60;;
38787;SDS011;24536;45.488;12.238;2024-03-22T09:47:16;3.97;;;3.45;;
38787;SDS011;24536;45.488;12.238;2024-03-22T09:49:52;4.65;;;4.25;;
38787;SDS011;24536;45.488;12.238;2024-03-22T09:52:18;3.33;;;3.03;;
38787;SDS011;24536;45.488;12.238;2024-03-22T09:54:45;4.75;;;3.35;;
38787;SDS011;24536;45.488;12.238;2024-03-22T09:57:24;3.38;;;2.80;;
38787;SDS011;24536;45.488;12.238;2024-03-22T09:59:51;3.17;;;2.88;;
38787;SDS011;24536;45.488;12.238;2024-03-22T10:02:17;3.22;;;2.92;;
38787;SDS011;24536;45.488;12.238;2024-03-22T10:04:43;5.10;;;3.17;;
38787;SDS011;24536;45.488;12.238;2024-03-22T10:07:12;5.35;;;3.40;;
38787;SDS011;24536;45.488;12.238;2024-03-22T10:09:38;5.22;;;4.00;;
38787;SDS011;24536;45.488;12.238;2024-03-22T10:12:20;5.22;;;3.80;;
38787;SDS011;24536;45.488;12.238;2024-03-22T10:14:47;6.60;;;3.88;;
38787;SDS011;24536;45.488;12.238;2024-03-22T10:17:12;6.38;;;3.35;;
38787;SDS011;24536;45.488;12.238;2024-03-22T10:19:38;4.55;;;3.25;;
38787;SDS011;24536;45.488;12.238;2024-03-22T10:22:05;5.32;;;3.80;;
38787;SDS011;24536;45.488;12.238;2024-03-22T10:24:31;3.80;;;3.30;;
38787;SDS011;24536;45.488;12.238;2024-03-22T10:27:00;4.68;;;3.58;;
38787;SDS011;24536;45.488;12.238;2024-03-22T10:29:26;5.18;;;2.97;;
38787;SDS011;24536;45.488;12.238;2024-03-22T10:31:53;5.38;;;2.53;;
38787;SDS011;24536;45.488;12.238;2024-03-22T10:34:23;4.93;;;2.63;;
38787;SDS011;24536;45.488;12.238;2024-03-22T10:39:18;4.90;;;3.78;;
38787;SDS011;24536;45.488;12.238;2024-03-22T10:41:45;6.43;;;4.07;;
38787;SDS011;24536;45.488;12.238;2024-03-22T10:44:11;4.57;;;3.17;;
38787;SDS011;24536;45.488;12.238;2024-03-22T10:46:37;7.50;;;3.47;;
38787;SDS011;24536;45.488;12.238;2024-03-22T10:49:03;3.38;;;2.60;;
38787;SDS011;24536;45.488;12.238;2024-03-22T10:51:30;6.63;;;4.00;;
38787;SDS011;24536;45.488;12.238;2024-03-22T10:53:57;4.50;;;3.15;;
38787;SDS011;24536;45.488;12.238;2024-03-22T10:56:24;4.07;;;3.50;;
38787;SDS011;24536;45.488;12.238;2024-03-22T10:58:51;5.43;;;3.55;;
38787;SDS011;24536;45.488;12.238;2024-03-22T11:01:26;6.45;;;3.15;;
38787;SDS011;24536;45.488;12.238;2024-03-22T11:04:02;3.63;;;2.90;;
38787;SDS011;24536;45.488;12.238;2024-03-22T11:06:30;4.47;;;3.90;;
38787;SDS011;24536;45.488;12.238;2024-03-22T11:08:58;6.30;;;4.93;;
38787;SDS011;24536;45.488;12.238;2024-03-22T11:11:27;4.80;;;4.30;;
38787;SDS011;24536;45.488;12.238;2024-03-22T11:13:54;5.20;;;4.10;;
38787;SDS011;24536;45.488;12.238;2024-03-22T11:16:21;4.18;;;3.78;;
38787;SDS011;24536;45.488;12.238;2024-03-22T11:18:47;6.55;;;4.43;;
38787;SDS011;24536;45.488;12.238;2024-03-22T11:21:13;10.27;;;6.22;;
38787;SDS011;24536;45.488;12.238;2024-03-22T11:23:40;6.70;;;5.55;;
38787;SDS011;24536;45.488;12.238;2024-03-22T11:26:05;5.85;;;5.07;;
38787;SDS011;24536;45.488;12.238;2024-03-22T11:28:33;6.25;;;5.20;;
38787;SDS011;24536;45.488;12.238;2024-03-22T11:30:58;7.68;;;5.32;;
38787;SDS011;24536;45.488;12.238;2024-03-22T11:33:24;6.50;;;5.15;;
38787;SDS011;24536;45.488;12.238;2024-03-22T11:35:52;5.95;;;4.70;;
38787;SDS011;24536;45.488;12.238;2024-03-22T11:38:18;7.40;;;3.63;;
38787;SDS011;24536;45.488;12.238;2024-03-22T11:40:44;4.07;;;3.25;;
38787;SDS011;24536;45.488;12.238;2024-03-22T11:43:11;5.32;;;3.47;;
38787;SDS011;24536;45.488;12.238;2024-03-22T11:45:40;4.78;;;3.90;;
38787;SDS011;24536;45.488;12.238;2024-03-22T11:48:06;4.53;;;3.97;;
38787;SDS011;24536;45.488;12.238;2024-03-22T11:50:35;5.47;;;4.10;;
38787;SDS011;24536;45.488;12.238;2024-03-22T11:53:04;4.00;;;3.30;;
38787;SDS011;24536;45.488;12.238;2024-03-22T11:55:31;4.13;;;3.22;;
38787;SDS011;24536;45.488;12.238;2024-03-22T11:57:59;3.95;;;3.20;;
38787;SDS011;24536;45.488;12.238;2024-03-22T12:00:25;2.63;;;2.28;;
38787;SDS011;24536;45.488;12.238;2024-03-22T12:02:52;3.60;;;2.63;;
38787;SDS011;24536;45.488;12.238;2024-03-22T12:05:18;9.38;;;5.85;;
38787;SDS011;24536;45.488;12.238;2024-03-22T12:07:45;7.13;;;4.15;;
38787;SDS011;24536;45.488;12.238;2024-03-22T12:10:11;8.00;;;2.40;;
38787;SDS011;24536;45.488;12.238;2024-03-22T12:12:36;5.18;;;2.60;;
38787;SDS011;24536;45.488;12.238;2024-03-22T12:15:02;2.88;;;2.53;;
38787;SDS011;24536;45.488;12.238;2024-03-22T12:17:29;4.03;;;2.70;;
38787;SDS011;24536;45.488;12.238;2024-03-22T12:19:55;3.08;;;2.22;;
38787;SDS011;24536;45.488;12.238;2024-03-22T12:22:24;5.38;;;2.08;;
38787;SDS011;24536;45.488;12.238;2024-03-22T12:24:50;2.97;;;2.30;;
38787;SDS011;24536;45.488;12.238;2024-03-22T12:27:16;7.15;;;2.20;;
38787;SDS011;24536;45.488;12.238;2024-03-22T12:29:42;5.72;;;2.25;;
38787;SDS011;24536;45.488;12.238;2024-03-22T12:32:09;2.50;;;2.00;;
38787;SDS011;24536;45.488;12.238;2024-03-22T12:34:35;1.77;;;1.60;;
38787;SDS011;24536;45.488;12.238;2024-03-22T12:37:02;1.80;;;1.70;;
38787;SDS011;24536;45.488;12.238;2024-03-22T12:39:28;2.42;;;1.60;;
38787;SDS011;24536;45.488;12.238;2024-03-22T12:41:54;2.65;;;1.50;;
38787;SDS011;24536;45.488;12.238;2024-03-22T12:44:20;1.70;;;1.58;;
38787;SDS011;24536;45.488;12.238;2024-03-22T12:46:46;1.70;;;1.25;;
38787;SDS011;24536;45.488;12.238;2024-03-22T12:49:12;2.05;;;1.50;;
38787;SDS011;24536;45.488;12.238;2024-03-22T12:51:37;1.30;;;1.10;;
38787;SDS011;24536;45.488;12.238;2024-03-22T12:54:03;1.52;;;1.30;;
38787;SDS011;24536;45.488;12.238;2024-03-22T12:56:30;1.80;;;1.40;;
38787;SDS011;24536;45.488;12.238;2024-03-22T12:58:56;2.20;;;1.40;;
38787;SDS011;24536;45.488;12.238;2024-03-22T13:01:21;2.42;;;1.10;;
38787;SDS011;24536;45.488;12.238;2024-03-22T13:03:47;3.17;;;1.70;;
38787;SDS011;24536;45.488;12.238;2024-03-22T13:06:13;2.10;;;1.90;;
38787;SDS011;24536;45.488;12.238;2024-03-22T13:08:38;3.78;;;3.13;;
38787;SDS011;24536;45.488;12.238;2024-03-22T13:11:04;4.88;;;1.80;;
38787;SDS011;24536;45.488;12.238;2024-03-22T13:13:33;1.85;;;1.40;;
38787;SDS011;24536;45.488;12.238;2024-03-22T13:15:59;3.45;;;2.20;;
38787;SDS011;24536;45.488;12.238;2024-03-22T13:18:27;1.35;;;1.02;;
38787;SDS011;24536;45.488;12.238;2024-03-22T13:20:53;4.30;;;1.30;;
38787;SDS011;24536;45.488;12.238;2024-03-22T13:23:19;3.45;;;1.38;;
38787;SDS011;24536;45.488;12.238;2024-03-22T13:25:45;1.38;;;1.10;;
38787;SDS011;24536;45.488;12.238;2024-03-22T13:28:11;2.83;;;0.98;;
38787;SDS011;24536;45.488;12.238;2024-03-22T13:30:37;2.08;;;1.85;;
38787;SDS011;24536;45.488;12.238;2024-03-22T13:33:04;2.33;;;1.90;;
38787;SDS011;24536;45.488;12.238;2024-03-22T13:35:30;1.40;;;1.30;;
38787;SDS011;24536;45.488;12.238;2024-03-22T13:37:58;2.10;;;1.10;;
38787;SDS011;24536;45.488;12.238;2024-03-22T13:40:23;1.75;;;1.00;;
38787;SDS011;24536;45.488;12.238;2024-03-22T13:42:52;1.73;;;1.10;;
38787;SDS011;24536;45.488;12.238;2024-03-22T13:45:19;1.67;;;1.20;;
38787;SDS011;24536;45.488;12.238;2024-03-22T13:47:45;1.83;;;1.00;;
38787;SDS011;24536;45.488;12.238;2024-03-22T13:50:11;2.17;;;0.90;;
38787;SDS011;24536;45.488;12.238;2024-03-22T13:52:37;1.10;;;1.00;;
38787;SDS011;24536;45.488;12.238;2024-03-22T13:55:03;2.05;;;1.00;;
38787;SDS011;24536;45.488;12.238;2024-03-22T13:57:29;3.75;;;0.82;;
38787;SDS011;24536;45.488;12.238;2024-03-22T13:59:56;1.00;;;0.90;;
38787;SDS011;24536;45.488;12.238;2024-03-22T14:02:21;3.45;;;1.30;;
38787;SDS011;24536;45.488;12.238;2024-03-22T14:04:47;1.38;;;1.25;;
38787;SDS011;24536;45.488;12.238;2024-03-22T14:07:13;2.08;;;1.00;;
38787;SDS011;24536;45.488;12.238;2024-03-22T14:09:40;0.93;;;0.82;;
38787;SDS011;24536;45.488;12.238;2024-03-22T14:12:08;2.00;;;0.90;;
38787;SDS011;24536;45.488;12.238;2024-03-22T14:14:34;1.30;;;0.98;;
38787;SDS011;24536;45.488;12.238;2024-03-22T14:17:00;1.35;;;1.15;;
38787;SDS011;24536;45.488;12.238;2024-03-22T14:19:25;2.45;;;0.90;;
38787;SDS011;24536;45.488;12.238;2024-03-22T14:21:51;1.40;;;0.77;;